Time;durP1;ratioP1;P1;durP2;ratioP2;P2;SDS_P1;SDS_P2;PMS_P1;PMS_P2;Temp;Humidity;BMP_temperature;BMP_pressure;BME280_temperature;BME280_humidity;BME280_pressure;Samples;Min_cycle;Max_cycle;Signal;HPM_P1;HPM_P2
2023/07/04 00:01:13;;;;;;;27.05;24.75;;;12.50;99.90;;;;;;4970127;28;20052;-81
2023/07/04 00:03:40;;;;;;;26.90;24.58;;;12.40;99.90;;;;;;4970748;28;20064;-81
2023/07/04 00:06:07;;;;;;;23.88;21.77;;;12.40;99.90;;;;;;4986480;28;20560;-81
2023/07/04 00:08:33;;;;;;;25.00;22.52;;;12.30;99.90;;;;;;4970880;28;20133;-82
2023/07/04 00:11:01;;;;;;;26.20;24.02;;;12.30;99.90;;;;;;4970548;28;20505;-82
2023/07/04 00:13:28;;;;;;;27.30;25.27;;;12.30;99.90;;;;;;4987523;28;20125;-81
2023/07/04 00:15:54;;;;;;;29.58;26.92;;;12.30;99.90;;;;;;4970184;28;20189;-81
2023/07/04 00:18:22;;;;;;;26.35;24.02;;;12.30;99.90;;;;;;4986850;28;20030;-81
2023/07/04 00:20:55;;;;;;;30.90;28.50;;;12.20;99.90;;;;;;4987578;28;20401;-82
2023/07/04 00:23:22;;;;;;;28.80;26.77;;;12.20;99.90;;;;;;4987506;28;20422;-81
2023/07/04 00:25:47;;;;;;;31.52;28.67;;;12.20;99.90;;;;;;4986822;28;20469;-81
2023/07/04 00:28:13;;;;;;;28.30;26.00;;;12.10;99.90;;;;;;4986857;28;20192;-81
2023/07/04 00:30:39;;;;;;;26.63;24.02;;;12.10;99.90;;;;;;4986391;28;20129;-81
2023/07/04 00:33:05;;;;;;;27.63;25.00;;;12.10;99.90;;;;;;4986485;28;20038;-81
2023/07/04 00:35:30;;;;;;;25.00;23.05;;;12.10;99.90;;;;;;4986281;28;20047;-81
2023/07/04 00:37:56;;;;;;;24.40;22.65;;;12.20;99.90;;;;;;4987093;28;20092;-81
2023/07/04 00:40:23;;;;;;;27.83;25.80;;;12.00;99.90;;;;;;4986566;28;20040;-81
2023/07/04 00:42:56;;;;;;;28.40;26.17;;;11.90;99.90;;;;;;4986952;28;20046;-81
2023/07/04 00:45:27;;;;;;;23.58;21.58;;;11.90;99.90;;;;;;4986018;28;20198;-81
2023/07/04 00:48:00;;;;;;;25.35;23.30;;;11.80;99.90;;;;;;4985208;28;20057;-81
2023/07/04 00:50:31;;;;;;;31.77;29.25;;;11.80;99.90;;;;;;4962949;28;20192;-82
2023/07/04 00:53:02;;;;;;;27.88;25.52;;;11.80;99.90;;;;;;4986521;28;20068;-81
2023/07/04 00:55:30;;;;;;;29.80;27.20;;;11.80;99.90;;;;;;4979785;28;20041;-81
2023/07/04 00:57:56;;;;;;;26.05;24.05;;;11.70;99.90;;;;;;4986935;28;20060;-82
2023/07/04 01:00:23;;;;;;;26.30;24.25;;;11.70;99.90;;;;;;4966419;28;20121;-81
2023/07/04 01:03:09;;;;;;;25.17;22.90;;;11.70;99.90;;;;;;4987736;28;20038;-81
2023/07/04 01:05:44;;;;;;;25.35;23.25;;;11.70;99.90;;;;;;4990762;28;20034;-81
2023/07/04 01:08:18;;;;;;;39.38;36.35;;;11.70;99.90;;;;;;4990296;28;20125;-81
2023/07/04 01:10:46;;;;;;;27.33;24.60;;;11.70;99.90;;;;;;4973982;28;20426;-82
2023/07/04 01:13:34;;;;;;;25.80;23.60;;;11.70;99.90;;;;;;4989881;28;20401;-81
2023/07/04 01:16:11;;;;;;;28.90;26.52;;;11.70;99.90;;;;;;4973268;28;20037;-81
2023/07/04 01:18:39;;;;;;;31.35;28.10;;;11.70;99.90;;;;;;4954383;28;20051;-81
2023/07/04 01:21:07;;;;;;;33.35;30.77;;;11.60;99.90;;;;;;4970677;28;20043;-81
2023/07/04 01:24:16;;;;;;;30.95;28.45;;;11.60;99.90;;;;;;4954559;28;20049;-81
2023/07/04 01:26:45;;;;;;;26.15;23.92;;;11.60;99.90;;;;;;4876622;29;20036;-81
2023/07/04 01:29:15;;;;;;;41.30;38.17;;;11.60;99.90;;;;;;4892725;29;20105;-81
2023/07/04 01:31:43;;;;;;;30.70;28.40;;;11.60;99.90;;;;;;4900357;29;20052;-82
2023/07/04 01:34:10;;;;;;;26.52;24.73;;;11.50;99.90;;;;;;4880101;29;20643;-81
2023/07/04 01:36:38;;;;;;;25.30;22.73;;;11.60;99.90;;;;;;4880290;29;20055;-83
2023/07/04 01:39:09;;;;;;;25.77;23.75;;;11.60;99.90;;;;;;4879850;29;20040;-81
2023/07/04 01:41:35;;;;;;;30.92;28.38;;;11.60;99.90;;;;;;4894964;29;20060;-80
2023/07/04 01:44:06;;;;;;;31.88;29.33;;;11.60;99.90;;;;;;4879860;29;20048;-80
2023/07/04 01:46:34;;;;;;;28.17;25.88;;;11.60;99.90;;;;;;4871308;29;20041;-80
2023/07/04 01:49:00;;;;;;;26.60;24.33;;;11.70;99.90;;;;;;4876612;29;20044;-81
2023/07/04 01:51:29;;;;;;;34.25;31.85;;;11.60;99.90;;;;;;4860986;29;20575;-81
2023/07/04 01:53:55;;;;;;;34.35;31.50;;;11.60;99.90;;;;;;4907770;29;20087;-80
2023/07/04 01:56:20;;;;;;;31.88;29.38;;;11.60;99.90;;;;;;4894918;29;20436;-80
2023/07/04 01:58:46;;;;;;;42.83;39.92;;;12.00;99.90;;;;;;4894970;29;20051;-81
2023/07/04 02:01:15;;;;;;;33.08;30.42;;;11.80;99.90;;;;;;4954321;28;20065;-80
2023/07/04 02:03:41;;;;;;;42.22;38.80;;;11.60;99.90;;;;;;4989401;28;20038;-81
2023/07/04 02:06:07;;;;;;;33.70;30.50;;;11.70;99.90;;;;;;4972976;28;20093;-81
2023/07/04 02:08:33;;;;;;;32.15;29.58;;;11.70;99.90;;;;;;4989091;28;20073;-81
2023/07/04 02:10:59;;;;;;;34.97;32.28;;;11.70;99.90;;;;;;4988444;28;20117;-81
2023/07/04 02:13:24;;;;;;;28.80;26.42;;;11.70;99.90;;;;;;4988894;28;20058;-81
2023/07/04 02:15:50;;;;;;;26.73;24.50;;;11.70;99.90;;;;;;4988801;28;20050;-81
2023/07/04 02:18:16;;;;;;;29.48;26.85;;;11.70;99.90;;;;;;4990293;28;20038;-82
2023/07/04 02:20:42;;;;;;;31.58;29.48;;;11.60;99.90;;;;;;4972637;28;20125;-81
2023/07/04 02:23:08;;;;;;;42.28;39.47;;;11.70;99.90;;;;;;4972653;28;20500;-80
2023/07/04 02:25:40;;;;;;;43.33;40.38;;;11.70;99.90;;;;;;4988365;28;20035;-81
2023/07/04 02:28:06;;;;;;;46.03;42.85;;;11.70;99.90;;;;;;4972882;28;20049;-81
2023/07/04 02:30:31;;;;;;;29.70;27.13;;;11.70;99.90;;;;;;4972842;28;20196;-81
2023/07/04 02:32:57;;;;;;;44.65;41.28;;;11.80;99.90;;;;;;4988797;28;20197;-80
2023/07/04 02:35:23;;;;;;;34.90;32.00;;;12.10;99.90;;;;;;4988612;28;20034;-81
2023/07/04 02:37:51;;;;;;;36.45;33.42;;;11.90;99.90;;;;;;4989525;28;20069;-81
2023/07/04 02:40:17;;;;;;;36.85;33.55;;;11.90;99.90;;;;;;4971778;28;20074;-81
2023/07/04 02:42:42;;;;;;;39.78;36.83;;;11.80;99.90;;;;;;4989994;28;20038;-81
2023/07/04 02:45:09;;;;;;;31.30;28.45;;;11.90;99.90;;;;;;4988602;28;20077;-81
2023/07/04 02:47:35;;;;;;;32.95;30.23;;;11.80;99.90;;;;;;4988494;28;20046;-81
2023/07/04 02:50:00;;;;;;;45.47;41.70;;;11.90;99.90;;;;;;4989585;28;20431;-81
2023/07/04 02:52:26;;;;;;;55.08;50.38;;;12.10;99.90;;;;;;4988516;28;20049;-81
2023/07/04 02:54:52;;;;;;;49.05;44.92;;;11.90;99.90;;;;;;4971647;28;20495;-81
2023/07/04 02:57:21;;;;;;;30.33;27.67;;;11.80;99.90;;;;;;4972863;28;20041;-81
2023/07/04 02:59:47;;;;;;;38.25;35.20;;;11.80;99.90;;;;;;4972053;28;20049;-81
2023/07/04 03:02:13;;;;;;;82.45;75.40;;;11.90;99.90;;;;;;4988028;28;20042;-81
2023/07/04 03:04:38;;;;;;;46.45;42.78;;;12.00;99.90;;;;;;4972252;28;20066;-80
2023/07/04 03:07:05;;;;;;;46.75;42.65;;;11.90;99.90;;;;;;4971971;28;20506;-80
2023/07/04 03:09:31;;;;;;;49.35;45.88;;;12.00;99.90;;;;;;4971677;28;20053;-81
2023/07/04 03:11:57;;;;;;;54.10;50.13;;;12.20;99.90;;;;;;5006424;28;20451;-81
2023/07/04 03:14:24;;;;;;;41.20;37.38;;;12.30;99.90;;;;;;5008867;28;20448;-81
2023/07/04 03:16:52;;;;;;;53.72;49.83;;;12.20;99.90;;;;;;4991253;28;20215;-80
2023/07/04 03:19:18;;;;;;;49.90;46.53;;;12.30;99.90;;;;;;4991164;28;20046;-80
2023/07/04 03:21:43;;;;;;;39.25;36.05;;;12.40;99.90;;;;;;4975043;28;20061;-80
2023/07/04 03:24:09;;;;;;;42.30;38.80;;;12.40;99.90;;;;;;4990843;28;20048;-81
2023/07/04 03:26:35;;;;;;;50.53;46.40;;;12.50;99.90;;;;;;5008911;28;20088;-80
2023/07/04 03:29:01;;;;;;;40.83;37.15;;;12.60;99.90;;;;;;4974888;28;20408;-81
2023/07/04 03:31:27;;;;;;;29.95;26.88;;;12.60;99.90;;;;;;4975221;28;20436;-80
2023/07/04 03:33:53;;;;;;;35.13;32.15;;;12.60;99.90;;;;;;4991302;28;20038;-81
2023/07/04 03:36:21;;;;;;;36.33;33.22;;;12.70;99.90;;;;;;4991202;28;20070;-81
2023/07/04 03:38:47;;;;;;;28.73;23.75;;;12.70;99.90;;;;;;4990445;28;20042;-81
2023/07/04 03:41:13;;;;;;;26.52;24.27;;;12.70;99.90;;;;;;4975036;28;20041;-81
2023/07/04 03:43:42;;;;;;;21.15;16.15;;;12.80;99.90;;;;;;4991325;28;20037;-80
2023/07/04 03:46:07;;;;;;;20.23;17.83;;;12.80;99.90;;;;;;4991145;28;20038;-81
2023/07/04 03:48:33;;;;;;;22.48;20.25;;;12.90;99.90;;;;;;4991264;28;20512;-80
2023/07/04 03:50:59;;;;;;;17.98;12.00;;;12.80;99.90;;;;;;4991045;28;20069;-81
2023/07/04 03:53:24;;;;;;;17.85;13.93;;;12.80;99.90;;;;;;4990710;28;20049;-81
2023/07/04 03:55:50;;;;;;;18.40;13.82;;;12.80;99.90;;;;;;4991660;28;20411;-82
2023/07/04 03:58:17;;;;;;;17.27;14.77;;;12.90;99.90;;;;;;4978750;28;20539;-82
2023/07/04 04:00:47;;;;;;;18.30;16.45;;;12.90;99.90;;;;;;4994710;28;20046;-82
2023/07/04 04:03:25;;;;;;;17.85;14.85;;;13.10;99.90;;;;;;4975410;28;20046;-81
2023/07/04 04:05:51;;;;;;;17.70;15.95;;;13.00;99.90;;;;;;4993593;28;20165;-81
2023/07/04 04:08:17;;;;;;;22.73;16.35;;;13.00;99.90;;;;;;4974328;28;20129;-81
2023/07/04 04:11:02;;;;;;;21.15;17.80;;;13.40;99.90;;;;;;4993657;28;20056;-81
2023/07/04 04:13:46;;;;;;;19.48;17.08;;;13.10;99.90;;;;;;5008848;28;20103;-81
2023/07/04 04:16:30;;;;;;;22.45;18.35;;;13.10;99.90;;;;;;4993747;28;20064;-81
2023/07/04 04:18:56;;;;;;;18.13;16.08;;;13.10;99.90;;;;;;4974582;28;20294;-81
2023/07/04 04:21:22;;;;;;;22.67;17.63;;;13.20;99.90;;;;;;4973869;28;20076;-81
2023/07/04 04:23:47;;;;;;;18.25;15.73;;;13.20;99.90;;;;;;4977825;28;20116;-82
2023/07/04 04:26:15;;;;;;;17.17;15.43;;;13.20;99.90;;;;;;4978452;28;20241;-82
2023/07/04 04:28:40;;;;;;;16.50;12.98;;;13.30;99.90;;;;;;4978288;28;20095;-81
2023/07/04 04:31:06;;;;;;;19.30;12.15;;;13.30;99.90;;;;;;4994755;28;20042;-82
2023/07/04 04:33:32;;;;;;;15.73;14.20;;;13.40;99.90;;;;;;4994458;28;20044;-83
2023/07/04 04:35:58;;;;;;;17.90;16.08;;;13.60;99.90;;;;;;4977455;28;20120;-82
2023/07/04 04:38:24;;;;;;;18.08;16.20;;;13.50;99.90;;;;;;4978064;28;20552;-83
2023/07/04 04:40:52;;;;;;;18.50;16.63;;;13.50;99.90;;;;;;4978205;28;20180;-84
2023/07/04 04:43:17;;;;;;;16.73;14.40;;;13.60;99.90;;;;;;4978315;28;20048;-83
2023/07/04 04:45:44;;;;;;;16.88;13.57;;;13.80;99.90;;;;;;4994491;28;20034;-83
2023/07/04 04:48:10;;;;;;;14.70;11.80;;;14.00;99.90;;;;;;4994348;28;20395;-83
2023/07/04 04:50:36;;;;;;;17.02;9.15;;;14.10;99.90;;;;;;4993412;28;20125;-83
2023/07/04 04:53:01;;;;;;;14.75;11.90;;;14.20;99.90;;;;;;4977862;28;20476;-84
2023/07/04 04:55:28;;;;;;;15.45;8.27;;;14.10;99.90;;;;;;4994647;28;20081;-83
2023/07/04 04:57:53;;;;;;;18.55;13.15;;;14.10;99.90;;;;;;4978098;28;20073;-84
2023/07/04 05:00:22;;;;;;;18.58;16.38;;;14.10;99.90;;;;;;4994067;28;20558;-84
2023/07/04 05:02:48;;;;;;;13.98;9.40;;;14.10;99.90;;;;;;4977727;28;20049;-83
2023/07/04 05:05:17;;;;;;;15.88;9.38;;;14.10;99.90;;;;;;4993623;28;20145;-84
2023/07/04 05:07:43;;;;;;;15.43;13.07;;;14.20;99.90;;;;;;4977917;28;20049;-83
2023/07/04 05:10:09;;;;;;;17.00;9.45;;;14.30;99.90;;;;;;4993521;28;20053;-83
2023/07/04 05:12:34;;;;;;;15.10;13.30;;;14.30;99.90;;;;;;4994323;28;20038;-83
2023/07/04 05:15:00;;;;;;;14.88;9.68;;;14.40;99.90;;;;;;4993549;28;20102;-83
2023/07/04 05:17:26;;;;;;;13.98;8.93;;;14.50;99.90;;;;;;4976055;28;20540;-83
2023/07/04 05:19:52;;;;;;;16.48;8.48;;;14.70;99.90;;;;;;4975450;28;20208;-84
2023/07/04 05:22:21;;;;;;;18.75;12.27;;;14.60;99.90;;;;;;4991896;28;20041;-84
2023/07/04 05:24:47;;;;;;;14.25;11.80;;;14.80;99.90;;;;;;4975388;28;20033;-83
2023/07/04 05:27:16;;;;;;;16.90;7.53;;;14.90;99.90;;;;;;4975395;28;20060;-84
2023/07/04 05:29:41;;;;;;;16.75;6.95;;;15.10;99.90;;;;;;4992342;28;20114;-84
2023/07/04 05:32:08;;;;;;;10.20;6.35;;;15.10;99.90;;;;;;4991762;28;20038;-83
2023/07/04 05:34:33;;;;;;;13.27;8.25;;;15.30;99.90;;;;;;4976429;28;20531;-84
2023/07/04 05:37:02;;;;;;;10.23;7.97;;;15.30;99.90;;;;;;4977699;28;20080;-84
2023/07/04 05:39:28;;;;;;;14.90;9.95;;;15.40;99.90;;;;;;5011412;28;20089;-84
2023/07/04 05:41:54;;;;;;;14.80;7.05;;;15.50;99.90;;;;;;4993645;28;20038;-84
2023/07/04 05:44:23;;;;;;;16.05;8.30;;;15.60;99.90;;;;;;4993660;28;20038;-83
2023/07/04 05:46:52;;;;;;;17.30;7.88;;;15.80;99.90;;;;;;4976399;28;20480;-83
2023/07/04 05:49:18;;;;;;;13.88;6.80;;;16.20;99.90;;;;;;4976192;28;20133;-83
2023/07/04 05:51:43;;;;;;;15.50;7.72;;;16.40;99.90;;;;;;4993008;28;20117;-83
2023/07/04 05:54:15;;;;;;;15.63;7.80;;;16.50;99.90;;;;;;4992698;28;20297;-83
2023/07/04 05:56:40;;;;;;;11.90;7.68;;;16.60;99.90;;;;;;4977452;28;20440;-83
2023/07/04 05:59:08;;;;;;;15.98;14.25;;;16.60;99.90;;;;;;5010506;28;20118;-83
2023/07/04 06:01:37;;;;;;;10.40;7.55;;;16.70;99.90;;;;;;4976717;28;20042;-84
2023/07/04 06:04:04;;;;;;;12.25;8.95;;;16.70;99.90;;;;;;4976218;28;20096;-83
2023/07/04 06:06:48;;;;;;;17.95;7.72;;;16.70;99.90;;;;;;4993040;28;20033;-83
2023/07/04 06:09:15;;;;;;;9.68;6.97;;;16.60;99.90;;;;;;4976429;28;20037;-83
2023/07/04 06:11:46;;;;;;;12.35;6.43;;;16.70;99.90;;;;;;4992728;28;20048;-83
2023/07/04 06:14:32;;;;;;;11.57;6.45;;;16.60;99.90;;;;;;4992508;28;20045;-83
2023/07/04 06:16:59;;;;;;;13.00;7.25;;;16.50;99.90;;;;;;4975437;28;20076;-83
2023/07/04 06:19:25;;;;;;;12.25;5.95;;;16.50;99.90;;;;;;4976376;28;20056;-83
2023/07/04 06:21:51;;;;;;;10.18;6.82;;;16.80;99.90;;;;;;4976377;28;20121;-83
2023/07/04 06:24:17;;;;;;;11.63;4.50;;;17.40;99.90;;;;;;4976106;28;20045;-83
2023/07/04 06:26:44;;;;;;;11.43;6.55;;;17.80;99.90;;;;;;4976074;28;20122;-83
2023/07/04 06:29:10;;;;;;;8.48;5.00;;;18.00;99.90;;;;;;4975690;28;20045;-83
2023/07/04 06:31:36;;;;;;;8.10;4.90;;;18.10;99.90;;;;;;4991721;28;20041;-83
2023/07/04 06:34:02;;;;;;;7.53;4.97;;;18.10;99.90;;;;;;4992392;28;20038;-83
2023/07/04 06:36:28;;;;;;;11.50;7.75;;;18.10;99.90;;;;;;4991970;28;20037;-84
2023/07/04 06:38:58;;;;;;;11.50;6.60;;;18.00;99.90;;;;;;4975739;28;20049;-83
2023/07/04 06:41:24;;;;;;;10.18;5.00;;;17.70;99.90;;;;;;4976014;28;20046;-84
2023/07/04 06:43:52;;;;;;;9.98;6.57;;;17.70;99.90;;;;;;4991736;28;20072;-84
2023/07/04 06:46:23;;;;;;;11.02;5.93;;;17.70;99.90;;;;;;4991705;28;20044;-84
2023/07/04 06:48:50;;;;;;;7.95;4.05;;;17.90;99.90;;;;;;5009766;28;20399;-84
2023/07/04 06:51:17;;;;;;;13.73;6.25;;;18.00;99.90;;;;;;4991990;28;20073;-84
2023/07/04 06:53:44;;;;;;;8.38;6.05;;;18.20;99.90;;;;;;4992051;28;20042;-84
2023/07/04 06:56:22;;;;;;;8.25;5.38;;;18.30;99.90;;;;;;4976263;28;20559;-84
2023/07/04 06:58:53;;;;;;;9.15;4.60;;;18.10;99.90;;;;;;4975377;28;20034;-84
2023/07/04 07:01:23;;;;;;;10.32;5.28;;;18.00;99.90;;;;;;4975186;28;20084;-84
2023/07/04 07:03:51;;;;;;;8.73;6.75;;;18.00;99.90;;;;;;4975424;28;20048;-84
2023/07/04 07:06:17;;;;;;;10.95;5.20;;;17.90;99.90;;;;;;4975432;28;20030;-84
2023/07/04 07:08:43;;;;;;;8.90;5.55;;;18.10;99.90;;;;;;5009384;28;20050;-83
2023/07/04 07:11:11;;;;;;;8.82;6.00;;;18.10;99.90;;;;;;4991663;28;20049;-85
2023/07/04 07:13:38;;;;;;;7.93;4.53;;;18.30;99.90;;;;;;4975326;28;20049;-84
2023/07/04 07:16:09;;;;;;;8.40;5.90;;;18.40;99.90;;;;;;4974853;28;20042;-84
2023/07/04 07:18:36;;;;;;;8.88;5.97;;;18.40;99.90;;;;;;4975633;28;20048;-84
2023/07/04 07:21:03;;;;;;;11.05;6.15;;;18.40;99.90;;;;;;4991459;28;20128;-84
2023/07/04 07:23:31;;;;;;;9.07;6.80;;;18.40;99.90;;;;;;4991883;28;20038;-84
2023/07/04 07:25:58;;;;;;;7.80;5.38;;;18.30;99.90;;;;;;4991652;28;20048;-84
2023/07/04 07:28:25;;;;;;;9.18;6.45;;;18.30;99.90;;;;;;4991472;28;20045;-84
2023/07/04 07:31:06;;;;;;;12.05;6.20;;;18.40;99.90;;;;;;4991085;28;20544;-85
2023/07/04 07:33:33;;;;;;;8.60;5.70;;;18.60;99.90;;;;;;4975510;28;20213;-84
2023/07/04 07:36:06;;;;;;;10.98;4.68;;;18.70;99.90;;;;;;4991783;28;20045;-84
2023/07/04 07:38:32;;;;;;;7.05;4.75;;;18.60;99.90;;;;;;4975207;28;20061;-84
2023/07/04 07:40:58;;;;;;;9.32;6.75;;;18.80;99.90;;;;;;5009062;28;20469;-85
2023/07/04 07:43:23;;;;;;;8.27;5.60;;;18.70;99.90;;;;;;5008882;28;20045;-85
2023/07/04 07:45:52;;;;;;;9.75;4.82;;;18.80;99.90;;;;;;5008240;28;20030;-85
2023/07/04 07:48:18;;;;;;;10.77;5.18;;;19.00;99.90;;;;;;5008801;28;20092;-85
2023/07/04 07:50:44;;;;;;;10.27;4.88;;;19.10;99.90;;;;;;4991095;28;20046;-85
2023/07/04 07:53:12;;;;;;;12.07;5.60;;;19.20;99.90;;;;;;4991268;28;20044;-85
2023/07/04 07:55:39;;;;;;;7.93;4.63;;;19.30;99.90;;;;;;4991209;28;20692;-85
2023/07/04 07:58:05;;;;;;;7.13;4.70;;;19.30;99.90;;;;;;4992455;28;20392;-85
2023/07/04 08:00:30;;;;;;;7.97;4.80;;;19.30;99.90;;;;;;4994996;28;20044;-85
2023/07/04 08:02:56;;;;;;;6.25;5.60;;;19.30;99.90;;;;;;4978877;28;20124;-85
2023/07/04 08:05:22;;;;;;;10.48;5.05;;;19.30;99.90;;;;;;4994885;28;20081;-85
2023/07/04 08:07:48;;;;;;;8.32;7.45;;;19.30;99.90;;;;;;4994978;28;20481;-85
2023/07/04 08:10:13;;;;;;;12.57;10.60;;;19.30;99.90;;;;;;4994731;28;20046;-85
2023/07/04 08:12:39;;;;;;;9.38;7.20;;;19.20;99.90;;;;;;4978414;28;20041;-85
2023/07/04 08:15:05;;;;;;;7.25;5.68;;;19.30;99.90;;;;;;4994806;28;20309;-85
2023/07/04 08:17:31;;;;;;;9.85;6.75;;;19.20;99.90;;;;;;4978630;28;20038;-85
2023/07/04 08:19:59;;;;;;;9.95;8.95;;;19.20;99.90;;;;;;5012272;28;20423;-85
2023/07/04 08:22:25;;;;;;;7.35;6.10;;;19.30;99.90;;;;;;4994826;28;20081;-85
2023/07/04 08:24:54;;;;;;;11.30;6.82;;;19.40;99.90;;;;;;4994771;28;20069;-85
2023/07/04 08:27:24;;;;;;;8.48;6.00;;;19.40;99.90;;;;;;5011932;28;20046;-85
2023/07/04 08:29:50;;;;;;;9.35;5.10;;;19.40;99.90;;;;;;4994955;28;20048;-85
2023/07/04 08:32:17;;;;;;;6.80;5.07;;;19.50;99.90;;;;;;4994711;28;20064;-84
2023/07/04 08:34:45;;;;;;;9.95;6.47;;;19.60;99.90;;;;;;5012568;28;20125;-85
2023/07/04 08:37:13;;;;;;;10.40;6.60;;;19.70;99.90;;;;;;5012198;28;20111;-85
2023/07/04 08:39:40;;;;;;;9.55;6.75;;;19.80;99.90;;;;;;4978199;28;20564;-84
2023/07/04 08:42:07;;;;;;;9.98;7.50;;;20.00;99.90;;;;;;4977906;28;20365;-85
2023/07/04 08:44:55;;;;;;;9.85;7.57;;;20.00;99.90;;;;;;4994781;28;20064;-85
2023/07/04 08:47:25;;;;;;;11.52;7.03;;;20.10;99.90;;;;;;4994182;28;20511;-85
2023/07/04 08:50:23;;;;;;;6.57;5.07;;;20.20;99.90;;;;;;4978105;28;20125;-85
2023/07/04 08:53:17;;;;;;;8.55;7.40;;;20.30;99.90;;;;;;4977819;28;20281;-84
2023/07/04 08:55:59;;;;;;;8.98;4.55;;;20.30;99.90;;;;;;4977776;28;20498;-85
2023/07/04 08:58:35;;;;;;;8.82;6.95;;;20.40;99.90;;;;;;4993432;28;20057;-85
2023/07/04 09:01:09;;;;;;;9.50;4.90;;;20.40;99.90;;;;;;4978116;28;20333;-86
2023/07/04 09:03:55;;;;;;;8.10;3.22;;;20.60;99.90;;;;;;4994094;28;20073;-85
2023/07/04 09:06:35;;;;;;;9.00;4.80;;;20.60;99.90;;;;;;5011656;28;20061;-86
2023/07/04 09:09:12;;;;;;;8.75;4.32;;;20.50;99.90;;;;;;4976405;28;20081;-86
2023/07/04 09:11:38;;;;;;;9.07;2.80;;;20.50;99.90;;;;;;4977080;28;20046;-86
2023/07/04 09:14:18;;;;;;;14.60;3.83;;;20.50;99.90;;;;;;4977776;28;20054;-85
2023/07/04 09:16:48;;;;;;;7.50;3.30;;;20.50;99.90;;;;;;4977416;28;20060;-86
2023/07/04 09:19:21;;;;;;;7.63;3.25;;;20.70;99.90;;;;;;4977233;28;20045;-86
2023/07/04 09:21:47;;;;;;;8.00;4.00;;;20.70;99.90;;;;;;4993837;28;20042;-85
2023/07/04 09:24:15;;;;;;;9.23;2.72;;;21.10;99.90;;;;;;5011494;28;20037;-86
2023/07/04 09:26:49;;;;;;;7.28;3.00;;;21.70;99.90;;;;;;5010780;28;20042;-86
2023/07/04 09:29:24;;;;;;;9.07;3.10;;;22.20;99.90;;;;;;4977937;28;20049;-86
2023/07/04 09:31:55;;;;;;;10.07;3.85;;;22.80;99.90;;;;;;4977631;28;20131;-86
2023/07/04 09:34:46;;;;;;;15.98;7.43;;;23.10;99.90;;;;;;4977574;28;20073;-86
2023/07/04 09:37:22;;;;;;;13.23;11.35;;;23.30;99.90;;;;;;4968688;28;20149;-86
2023/07/04 09:39:55;;;;;;;14.82;13.00;;;23.10;99.90;;;;;;4976865;28;20076;-86
2023/07/04 09:42:42;;;;;;;18.88;12.82;;;22.70;99.80;;;;;;4993532;28;20073;-86
2023/07/04 09:45:11;;;;;;;22.15;20.27;;;22.20;99.70;;;;;;4993735;28;20045;-86
2023/07/04 09:47:43;;;;;;;14.18;8.18;;;22.30;99.90;;;;;;5011135;28;20218;-86
2023/07/04 09:50:27;;;;;;;27.42;25.38;;;22.40;99.90;;;;;;4993760;28;20129;-86
2023/07/04 09:53:18;;;;;;;48.67;45.00;;;22.50;99.90;;;;;;4993524;28;20058;-87
2023/07/04 09:56:01;;;;;;;158.73;148.80;;;22.80;99.90;;;;;;4993319;28;20117;-87
2023/07/04 09:58:29;;;;;;;342.73;319.58;;;23.00;98.90;;;;;;4977170;28;20072;-86
2023/07/04 10:01:10;;;;;;;481.80;448.65;;;23.10;99.90;;;;;;4993034;28;20151;-86
2023/07/04 10:03:41;;;;;;;449.58;419.35;;;23.40;99.10;;;;;;4976962;28;20045;-86
2023/07/04 10:06:10;;;;;;;461.85;430.75;;;23.30;99.40;;;;;;4992954;28;20037;-86
2023/07/04 10:08:54;;;;;;;390.70;365.98;;;23.50;98.90;;;;;;4992357;28;20060;-86
2023/07/04 10:11:25;;;;;;;303.60;285.48;;;23.50;98.00;;;;;;4989360;28;20054;-87
2023/07/04 10:14:00;;;;;;;419.08;392.30;;;23.50;97.00;;;;;;4989330;28;20042;-86
2023/07/04 10:16:25;;;;;;;364.20;341.00;;;23.60;97.50;;;;;;4989228;28;20038;-86
2023/07/04 10:19:01;;;;;;;380.25;356.38;;;24.00;98.20;;;;;;4973338;28;20039;-86
2023/07/04 10:21:26;;;;;;;381.02;357.25;;;23.90;96.70;;;;;;4972922;28;20046;-86
2023/07/04 10:23:52;;;;;;;335.45;314.85;;;23.60;97.50;;;;;;4988876;28;20138;-86
2023/07/04 10:26:21;;;;;;;373.55;350.13;;;23.40;97.50;;;;;;4973257;28;20034;-86
2023/07/04 10:28:48;;;;;;;339.65;318.50;;;23.50;97.90;;;;;;4989606;28;20518;-86
2023/07/04 10:31:19;;;;;;;483.83;450.58;;;23.60;97.80;;;;;;4989759;28;20073;-87
2023/07/04 10:33:58;;;;;;;424.10;396.33;;;23.70;97.70;;;;;;4972963;28;20042;-87
2023/07/04 10:36:28;;;;;;;452.35;422.10;;;23.30;96.70;;;;;;4989436;28;20065;-86
2023/07/04 10:38:58;;;;;;;435.85;407.52;;;22.90;97.30;;;;;;4988657;28;20038;-86
2023/07/04 10:41:55;;;;;;;252.35;237.38;;;22.90;96.60;;;;;;4989647;28;20397;-86
2023/07/04 10:44:26;;;;;;;299.40;281.52;;;22.90;96.60;;;;;;4973317;28;20101;-86
2023/07/04 10:46:55;;;;;;;310.98;292.17;;;22.90;96.60;;;;;;4991132;28;20069;-87
2023/07/04 10:49:23;;;;;;;357.70;335.67;;;23.00;97.70;;;;;;4973326;28;20100;-87
2023/07/04 10:52:00;;;;;;;189.15;178.27;;;23.00;97.20;;;;;;4989042;28;20119;-86
2023/07/04 10:54:25;;;;;;;336.38;315.25;;;23.00;97.30;;;;;;4988733;28;20057;-86
2023/07/04 10:56:58;;;;;;;386.48;362.10;;;22.80;97.50;;;;;;4973803;28;20058;-87
2023/07/04 10:59:33;;;;;;;419.25;391.42;;;22.50;97.60;;;;;;4990037;28;20571;-87
2023/07/04 11:02:29;;;;;;;318.63;298.17;;;22.20;98.40;;;;;;4989279;28;20030;-87
2023/07/04 11:05:08;;;;;;;268.15;251.95;;;21.90;97.00;;;;;;4972980;28;20042;-87
2023/07/04 11:07:38;;;;;;;322.50;302.80;;;21.80;97.90;;;;;;4971980;28;20046;-87
2023/07/04 11:10:05;;;;;;;294.05;275.75;;;21.80;97.80;;;;;;4990995;28;20042;-87
2023/07/04 11:12:37;;;;;;;246.02;229.90;;;21.70;97.60;;;;;;4992368;28;20046;-86
2023/07/04 11:15:19;;;;;;;238.20;223.15;;;21.50;98.10;;;;;;4975433;28;20034;-87
2023/07/04 11:17:46;;;;;;;176.57;166.15;;;21.40;98.60;;;;;;4991841;28;20512;-87
2023/07/04 11:20:20;;;;;;;251.40;235.90;;;21.60;98.00;;;;;;4975466;28;20511;-86
2023/07/04 11:22:57;;;;;;;258.70;243.13;;;22.00;98.10;;;;;;4991443;28;20297;-86
2023/07/04 11:25:27;;;;;;;219.57;206.43;;;22.30;97.80;;;;;;4991749;28;20065;-86
2023/07/04 11:28:26;;;;;;;217.50;204.85;;;22.40;97.30;;;;;;5009492;28;20042;-87
2023/07/04 11:31:27;;;;;;;192.30;181.27;;;22.50;96.80;;;;;;4975603;28;20328;-88
2023/07/04 11:33:52;;;;;;;197.32;185.57;;;22.50;97.50;;;;;;4975693;28;20049;-87
2023/07/04 11:36:40;;;;;;;209.68;197.52;;;22.60;96.90;;;;;;4975713;28;20041;-88
2023/07/04 11:39:23;;;;;;;238.90;224.88;;;23.00;97.20;;;;;;4978942;28;20038;-86
2023/07/04 11:41:49;;;;;;;254.30;239.57;;;23.30;96.20;;;;;;4992790;28;20038;-87
2023/07/04 11:44:23;;;;;;;299.55;281.55;;;23.10;95.20;;;;;;4992807;28;20069;-88
2023/07/04 11:47:11;;;;;;;232.20;218.63;;;22.90;95.70;;;;;;4975273;28;20042;-88
2023/07/04 11:49:37;;;;;;;238.95;224.50;;;22.70;95.30;;;;;;4975669;28;20487;-87
2023/07/04 11:52:25;;;;;;;169.25;159.43;;;22.40;94.90;;;;;;4991462;28;20034;-87
2023/07/04 11:55:17;;;;;;;189.15;178.15;;;22.10;95.00;;;;;;4975540;28;20488;-87
2023/07/04 11:58:21;;;;;;;245.35;230.90;;;22.30;96.50;;;;;;5009392;28;20034;-87
2023/07/04 12:00:47;;;;;;;304.13;285.80;;;22.70;96.10;;;;;;4975199;28;20046;-87
2023/07/04 12:03:22;;;;;;;267.88;251.77;;;23.10;96.40;;;;;;4991238;28;20037;-87
2023/07/04 12:05:50;;;;;;;300.02;281.63;;;23.20;95.60;;;;;;5007987;28;20572;-87
2023/07/04 12:08:31;;;;;;;247.40;232.82;;;22.90;95.40;;;;;;4990991;28;20049;-87
2023/07/04 12:11:00;;;;;;;248.30;233.73;;;22.60;95.40;;;;;;4991363;28;20069;-87
2023/07/04 12:13:29;;;;;;;228.13;214.73;;;22.40;95.90;;;;;;4975154;28;20252;-87
2023/07/04 12:15:56;;;;;;;274.92;258.55;;;22.20;96.00;;;;;;5008872;28;20120;-88
2023/07/04 12:18:28;;;;;;;275.02;258.17;;;22.00;96.20;;;;;;4974990;28;20038;-87
2023/07/04 12:20:57;;;;;;;203.00;191.25;;;21.80;96.00;;;;;;4973913;28;20045;-86
2023/07/04 12:23:24;;;;;;;186.43;175.48;;;21.60;96.20;;;;;;4991433;28;20037;-87
2023/07/04 12:25:52;;;;;;;271.60;255.25;;;21.40;96.10;;;;;;4974871;28;20391;-87
2023/07/04 12:28:24;;;;;;;210.95;198.80;;;21.20;96.40;;;;;;4991065;28;20053;-87
2023/07/04 12:30:58;;;;;;;209.68;197.25;;;21.20;96.80;;;;;;4974970;28;20377;-87
2023/07/04 12:33:31;;;;;;;212.20;199.70;;;21.20;96.50;;;;;;4974509;28;20046;-86
2023/07/04 12:36:06;;;;;;;171.95;161.73;;;21.20;96.90;;;;;;4975120;28;20081;-87
2023/07/04 12:38:36;;;;;;;170.75;160.98;;;21.20;96.40;;;;;;4974669;28;20042;-87
2023/07/04 12:41:01;;;;;;;210.02;197.73;;;21.20;97.10;;;;;;4974954;28;20038;-87
2023/07/04 12:43:31;;;;;;;66.57;62.25;;;21.20;97.00;;;;;;4992093;28;20163;-87